Sedgwick Reserve, California Weather observations

Data are for 10 minute period ending at time listed.
 Day   Time   Solar   Ave.   Ave.  Ave.  Vector  Max.   Baro.   Total    
  of    of     Rad.   Air    Rel.  Wind   Wind   Wind  Press.  Precip.   
Year   Day            Temp.  Hum.  Speed  Dir.   Gust                    
2019   (PST)  Kw/m2    F      %     mph   deg.    mph    mb.     in.     
-------------------------------------------------------------------------
 114    5:40   0.01   51.6    68    2.1   300     3.7   973.5    0.00 
 114    5:50   0.02   52.2    67    1.4    10     2.5   973.6    0.00 
 114    6:00   0.11   51.7    69    0.6    25     2.2   973.7    0.00 
 114    6:10   0.15   53.2    69    0.4   273     1.4   973.9    0.00 
 114    6:20   0.18   56.3    65    0.5   294     2.3   974.1    0.00 
 114    6:30   0.22   59.1    62    0.3     0     1.3   974.3    0.00 
 114    6:40   0.26   59.9    62    0.3   250     1.3   974.4    0.00 
 114    6:50   0.29   60.9    61    0.0     0     0.0   974.5    0.00 
 114    7:00   0.33   63.6    55    0.5   120     1.5   974.5    0.00 
 114    7:10   0.37   65.8    55    1.5    94     2.3   974.5    0.00 
 114    7:20   0.41   67.6    50    0.7    68     1.6   974.5    0.00 
 114    7:30   0.44   68.8    48    1.1   133     2.5   974.5    0.00 
 114    7:40   0.47   69.1    46    1.4   149     3.9   974.6    0.00 
 114    7:50   0.51   69.0    46    3.3   133     5.6   974.7    0.00 
 114    8:00   0.54   70.7    45    2.9   121     5.4   974.7    0.00 
 114    8:10   0.57   71.4    42    3.4   139     5.1   974.7    0.00 
 114    8:20   0.60   71.5    40    2.9   145     4.5   974.7    0.00 
 114    8:30   0.63   73.5    37    2.9   136     5.0   974.7    0.00 
 114    8:40   0.66   75.1    35    2.9   129     5.6   974.8    0.00 
 114    8:50   0.69   76.2    32    3.2   133     5.4   974.8    0.00 
 114    9:00   0.72   77.1    30    3.2   123     5.8   974.8    0.00 
 114    9:10   0.74   77.7    31    3.5   135     5.8   974.8    0.00 
 114    9:20   0.76   77.5    34    3.8   148     6.7   974.8    0.00 
 114    9:30   0.79   78.7    31    3.6   139     6.0   974.8    0.00 
 114    9:40   0.81   79.5    28    3.2   112     5.4   974.8    0.00 
 114    9:50   0.82   80.2    30    3.1   131     5.6   974.8    0.00 
 114   10:00   0.84   79.9    31    2.8   152     5.7   974.7    0.00 
 114   10:10   0.86   80.1    31    2.8   186     6.4   974.7    0.00 
 114   10:20   0.87   80.9    29    3.1   193     5.8   974.6    0.00 
 114   10:30   0.88   80.7    30    4.4   211     9.0   974.6    0.00 
 114   10:40   0.89   80.7    30    5.7   226     8.9   974.6    0.00 
 114   10:50   0.90   80.9    30    4.4   216    11.4   974.5    0.00 
 114   11:00   0.91   82.1    29    4.4   262    11.3   974.4    0.00 
 114   11:10   0.91   82.6    29    6.0   238    11.0   974.2    0.00 
 114   11:20   0.91   82.6    28    5.9   270    10.1   974.1    0.00 
 114   11:30   0.88   83.4    28    4.9   257    13.8   974.0    0.00 
 114   11:40   0.92   83.8    28    6.6   250    10.9   974.0    0.00 
 114   11:50   0.91   84.2    29    6.2   277    10.4   973.9    0.00 
 114   12:00   0.91   83.9    28    5.9   274    10.1   973.9    0.00 
 114   12:10   0.91   84.1    28    5.5   280    10.7   973.8    0.00 
 114   12:20   0.91   84.9    28    5.5   269    12.1   973.8    0.00 
 114   12:30   0.90   84.3    28    5.4   247    10.3   973.7    0.00 
 114   12:40   0.89   85.8    28    5.0   238    11.1   973.6    0.00 
 114   12:50   0.88   85.7    29    6.5   290    12.1   973.5    0.00 
 114   13:00   0.86   85.1    29    6.7   267    13.7   973.4    0.00 
 114   13:10   0.85   85.6    29    4.5   260    10.7   973.4    0.00 
 114   13:20   0.84   85.8    29    5.2   254    11.4   973.3    0.00 
 114   13:30   0.82   85.3    31    8.5   244    14.5   973.2    0.00 
 114   13:40   0.80   85.2    33    7.7   253    15.7   973.1    0.00 
 114   13:50   0.78   84.1    38    9.1   262    16.2   973.1    0.00 
 114   14:00   0.76   84.3    39   10.0   283    18.2   973.0    0.00 
 114   14:10   0.73   84.1    40    9.3   305    14.4   973.0    0.00 
 114   14:20   0.71   84.1    40    9.1   286    14.1   972.9    0.00 
 114   14:30   0.69   84.2    40    9.3   291    15.2   972.9    0.00 
 114   14:40   0.66   83.5    41   10.4   298    15.8   972.8    0.00 
 114   14:50   0.64   83.7    40    8.4   295    14.5   972.7    0.00 
 114   15:00   0.61   83.3    38    9.8   295    15.1   972.7    0.00 
 114   15:10   0.58   83.2    38    7.6   294    12.3   972.6    0.00 
 114   15:20   0.55   83.0    38    7.8   279    13.1   972.6    0.00 
 114   15:30   0.52   82.0    38    9.4   286    14.0   972.6    0.00 
 114   15:40   0.49   81.7    38    8.5   287    12.5   972.5    0.00 
 114   15:50   0.46   82.1    38    7.8   307    12.0   972.5    0.00 
 114   16:00   0.43   80.9    39    9.0   289    13.6   972.6    0.00 
 114   16:10   0.40   80.3    40    9.0   279    13.2   972.6    0.00 
 114   16:20   0.36   79.7    40    9.7   294    13.5   972.6    0.00 
 114   16:30   0.33   79.0    40    9.4   283    14.3   972.6    0.00 
 114   16:40   0.29   79.5    37    7.5   289    11.5   972.6    0.00 
 114   16:50   0.26   78.5    37    8.1   298    13.2   972.6    0.00 
 114   17:00   0.23   78.6    39    7.6   276    15.1   972.6    0.00 
 114   17:10   0.20   76.4    42    9.9   280    14.7   972.6    0.00 
 114   17:20   0.17   76.9    43    5.3   285    10.4   972.7    0.00 
 114   17:30   0.14   76.0    44    5.9   292    10.0   972.7    0.00 
 114   17:40   0.10   75.1    45    4.9   282     9.9   972.7    0.00 
 114   17:50   0.07   74.8    45    5.5   283    10.1   972.7    0.00 
 114   18:00   0.04   73.1    47    6.8   293     9.9   972.7    0.00 
 114   18:10   0.03   72.2    49    5.0   301    10.1   972.7    0.00 
 114   18:20   0.02   71.7    49    2.0   298     5.6   972.9    0.00 
 114   18:30   0.01   70.9    50    1.3   278     2.8   973.0    0.00 
 114   18:40   0.01   69.3    53    1.5   255     2.3   973.0    0.00 
 114   18:50   0.00   68.5    54    0.6   312     1.5   973.1    0.00 
 114   19:00   0.00   67.3    56    0.6   322     1.5   973.1    0.00 
 114   19:10   0.00   65.9    58    0.6   230     1.3   973.2    0.00 
 114   19:20   0.00   64.8    60    0.3   355     1.8   973.3    0.00 
 114   19:30   0.00   63.7    62    0.9    23     2.6   973.3    0.00 
 114   19:40   0.00   61.6    67    2.7    16     4.1   973.3    0.00 
 114   19:50   0.00   60.9    68    1.3   356     2.3   973.3    0.00 
 114   20:00   0.00   60.5    69    0.2    33     1.6   973.5    0.00 
 114   20:10   0.00   59.5    72    2.4    22     4.1   973.6    0.00 
 114   20:20   0.00   58.6    75    1.8     2     3.9   973.8    0.00 
 114   20:30   0.00   58.7    75    2.1     2     4.1   973.8    0.00 
 114   20:40   0.00   58.0    76    2.2   358     4.2   973.8    0.00 
 114   20:50   0.00   57.9    76    0.6   328     1.6   973.9    0.00 
 114   21:00   0.00   57.4    78    0.2    39     2.0   973.9    0.00 
 114   21:10   0.00   56.9    79    0.1   260     0.8   973.9    0.00 
 114   21:20   0.00   56.7    79    0.8   270     2.0   974.0    0.00 
 114   21:30   0.00   56.5    80    1.1   350     2.6   974.1    0.00 
 114   21:40   0.00   55.8    81    0.4   243     2.1   974.1    0.00 
 114   21:50   0.00   56.0    81    0.6   296     1.7   974.2    0.00 
 114   22:00   0.00   56.0    80    0.4     6     1.3   974.2    0.00 
 114   22:10   0.00   55.3    82    0.9   357     2.0   974.1    0.00 
 114   22:20   0.00   55.3    83    1.2   285     2.0   974.0    0.00 
 114   22:30   0.00   55.8    82    0.4   340     1.5   974.0    0.00 
 114   22:40   0.00   55.5    82    1.2     4     2.8   974.1    0.00 
 114   22:50   0.00   55.1    82    1.3   336     2.5   974.1    0.00 
 114   23:00   0.00   55.3    81    0.6   334     2.0   974.1    0.00 
 114   23:10   0.00   55.4    81    0.3   266     1.5   974.1    0.00 
 114   23:20   0.00   55.0    82    0.5   174     1.5   974.1    0.00 
 114   23:30   0.00   54.7    83    0.4   238     1.4   974.0    0.00 
 114   23:40   0.00   54.8    84    0.6   266     2.0   974.0    0.00 
 114   23:50   0.00   54.4    84    0.2    72     1.5   974.0    0.00 
 115    0:00   0.00   54.0    85    0.3    16     1.0   974.0    0.00 
 115    0:10   0.00   54.1    86    0.7   318     1.8   973.9    0.00 
 115    0:20   0.00   53.8    86    0.9   313     2.6   973.9    0.00 
 115    0:30   0.00   54.0    86    0.7    32     2.7   973.8    0.00 
 115    0:40   0.00   54.1    86    0.7   242     1.5   973.8    0.00 
 115    0:50   0.00   54.1    86    0.3   285     1.3   973.7    0.00 
 115    1:00   0.00   53.9    87    0.2   332     1.0   973.6    0.00 
 115    1:10   0.00   54.0    87    2.4   355     4.0   973.5    0.00 
 115    1:20   0.00   54.0    87    0.1    14     1.1   973.4    0.00 
 115    1:30   0.00   54.0    87    1.4   284     2.8   973.3    0.00 
 115    1:40   0.00   53.8    87    1.3    30     3.1   973.3    0.00 
 115    1:50   0.00   53.7    88    1.1   281     2.2   973.3    0.00 
 115    2:00   0.00   53.9    88    0.5   274     2.3   973.3    0.00 
 115    2:10   0.00   53.7    88    0.7    29     2.1   973.3    0.00 
 115    2:20   0.00   53.6    88    0.3   223     1.8   973.3    0.00 
 115    2:30   0.00   53.4    89    0.8   250     1.7   973.3    0.00 
 115    2:40   0.00   53.6    89    0.2    58     1.6   973.3    0.00 
 115    2:50   0.00   53.3    89    0.2   240     1.2   973.2    0.00 
 115    3:00   0.00   52.9    89    0.7    34     1.8   973.2    0.00 
 115    3:10   0.00   52.8    90    0.1   255     0.9   973.2    0.00 
 115    3:20   0.00   52.8    91    0.2    65     1.5   973.3    0.00 
 115    3:30   0.00   52.4    91    0.1    20     1.2   973.2    0.00 
 115    3:40   0.00   52.7    92    0.6   348     1.8   973.2    0.00 
 115    3:50   0.00   52.7    91    0.6    49     2.0   973.3    0.00 
 115    4:00   0.00   52.4    92    0.4    39     1.9   973.2    0.00 
 115    4:10   0.00   52.6    92    0.3   357     1.3   973.2    0.00 
 115    4:20   0.00   52.6    92    0.4   264     1.8   973.2    0.00 
 115    4:30   0.00   52.5    92    0.2   213     1.0   973.2    0.00 
 115    4:40   0.00   52.3    92    0.4    40     2.8   973.2    0.00 
 115    4:50   0.00   52.2    93    0.7    36     2.7   973.3    0.00 
 115    5:00   0.00   52.2    93    0.1    22     1.4   973.3    0.00 
 115    5:10   0.00   51.8    93    0.0    11     0.4   973.3    0.00 
 115    5:20   0.00   52.0    93    0.9   264     2.5   973.4    0.00 
 115    5:30   0.01   51.6    93    0.4   314     1.5   973.4    0.00 

Return to Sedgwick Reserve graphs page.


Western Regional Climate Center,wrcc@dri.edu